Dallas, Texas
Traffic Map
Current Weather Conditions
Dallas, Texas
Few Clouds
Few Clouds
91°
Feels Like: 94°
Wind Chill: 91° Ceiling: Unl
Heat Index: 94° Visibility: 10mi
Dew Point: 66° Wind: 16mph
Humidity: 43% Direction: 160° (SSE)
Pressure: 29.96in Gusts: 0mph
Raw Report DataKDAL 250053Z 16014KT 10SM FEW060 FEW080 FEW250 33/19 A2996 RMK AO2 SLP136 MDT CU NW-N AND DSNT NE T03280189
Traffic Incident Summary
Active as of:
Severity:
Category:
InformationThere was an issue retrieving the traffic information for this location. Please try a different location or try again shortly.
Advertisements
Track Severe Weather on mobile